createdAt,value
2022-08-22T00:00:45.747Z,5.00
2022-08-22T00:02:49.418Z,5.60
2022-08-22T00:03:01.248Z,12.10
2022-08-22T00:03:11.262Z,5.90
2022-08-22T00:03:42.582Z,5.20
2022-08-22T00:06:24.690Z,5.70
2022-08-22T00:09:20.202Z,5.50
2022-08-22T00:12:00.390Z,5.40
2022-08-22T00:14:42.344Z,5.70
2022-08-22T00:17:45.396Z,5.70
2022-08-22T00:20:26.087Z,5.70
2022-08-22T00:23:15.992Z,6.00
2022-08-22T00:26:00.148Z,5.20
2022-08-22T00:28:40.353Z,6.00
2022-08-22T00:31:24.667Z,5.80
2022-08-22T00:34:03.679Z,5.40
2022-08-22T00:36:47.779Z,5.10
2022-08-22T00:39:28.516Z,4.90
2022-08-22T00:42:32.363Z,4.80
2022-08-22T00:46:00.609Z,5.10
2022-08-22T00:49:25.466Z,4.60
2022-08-22T00:52:42.917Z,5.00
2022-08-22T00:55:59.750Z,5.20
2022-08-22T00:59:23.962Z,4.80
2022-08-22T01:02:13.394Z,4.60
2022-08-22T01:05:11.158Z,5.00
2022-08-22T01:08:04.837Z,4.20
2022-08-22T01:10:56.245Z,4.30
2022-08-22T01:13:48.316Z,4.40
2022-08-22T01:16:47.688Z,4.50
2022-08-22T01:20:04.856Z,4.60
2022-08-22T01:23:33.605Z,4.50
2022-08-22T01:27:08.546Z,4.60
2022-08-22T01:30:19.281Z,3.90
2022-08-22T01:33:35.625Z,4.90
2022-08-22T01:36:46.016Z,4.40
2022-08-22T01:39:48.416Z,4.20
2022-08-22T01:43:07.022Z,4.80
2022-08-22T01:46:11.995Z,4.70
2022-08-22T01:48:51.184Z,4.50
2022-08-22T01:51:32.366Z,4.40
2022-08-22T01:54:13.315Z,4.80
2022-08-22T01:56:48.270Z,4.60
2022-08-22T01:59:35.016Z,4.00
2022-08-22T02:02:37.019Z,4.40
2022-08-22T02:05:20.750Z,4.50
2022-08-22T02:08:01.865Z,3.90
2022-08-22T02:10:56.255Z,4.10
2022-08-22T02:13:58.945Z,4.10
2022-08-22T02:16:42.778Z,4.20
2022-08-22T02:19:34.912Z,4.00
2022-08-22T02:22:21.710Z,4.50
2022-08-22T02:25:08.938Z,4.50
2022-08-22T02:27:55.291Z,4.80
2022-08-22T02:30:47.397Z,4.00
2022-08-22T02:33:35.246Z,4.20
2022-08-22T02:36:22.143Z,4.40
2022-08-22T02:39:06.404Z,4.20
2022-08-22T02:41:52.885Z,3.60
2022-08-22T02:44:31.398Z,4.10
2022-08-22T02:47:15.203Z,3.70
2022-08-22T02:49:55.810Z,3.70
2022-08-22T02:52:35.253Z,4.10
2022-08-22T02:55:14.887Z,4.10
2022-08-22T02:57:58.044Z,3.70
2022-08-22T03:00:43.565Z,3.60
2022-08-22T03:03:28.881Z,4.20
2022-08-22T03:06:07.482Z,4.20
2022-08-22T03:09:01.007Z,4.70
2022-08-22T03:11:39.465Z,4.10
2022-08-22T03:14:21.581Z,4.50
2022-08-22T03:17:05.243Z,4.00
2022-08-22T03:20:01.488Z,4.60
2022-08-22T03:22:45.014Z,4.30
2022-08-22T03:25:31.271Z,4.40
2022-08-22T03:28:09.626Z,4.20
2022-08-22T03:30:57.329Z,4.50
2022-08-22T03:33:32.474Z,4.50
2022-08-22T03:36:28.504Z,4.80
2022-08-22T03:39:17.379Z,4.40
2022-08-22T03:42:21.043Z,4.90
2022-08-22T03:45:49.269Z,4.20
2022-08-22T03:48:42.668Z,4.40
2022-08-22T03:51:31.755Z,3.70
2022-08-22T03:54:38.624Z,3.70
2022-08-22T03:58:05.386Z,3.50
2022-08-22T04:01:23.473Z,3.60
2022-08-22T04:04:48.784Z,3.80
2022-08-22T04:07:47.246Z,3.40
2022-08-22T04:11:02.453Z,3.20
2022-08-22T04:14:13.485Z,3.40
2022-08-22T04:17:20.328Z,3.30
2022-08-22T04:20:26.632Z,3.40
2022-08-22T04:23:28.700Z,3.10
2022-08-22T04:26:12.539Z,3.20
2022-08-22T04:28:53.950Z,3.10
2022-08-22T04:31:34.985Z,3.50
2022-08-22T04:34:17.254Z,3.60
2022-08-22T04:36:56.644Z,3.90
2022-08-22T04:39:39.928Z,3.30
2022-08-22T04:42:34.097Z,3.60
2022-08-22T04:45:15.594Z,3.50
2022-08-22T04:47:55.331Z,4.10
2022-08-22T04:50:35.051Z,3.70
2022-08-22T04:53:34.334Z,3.90
2022-08-22T04:56:17.006Z,3.60
2022-08-22T04:59:00.649Z,3.30
2022-08-22T05:01:46.933Z,4.40
2022-08-22T05:04:25.361Z,3.40
2022-08-22T05:07:08.042Z,3.50
2022-08-22T05:09:49.568Z,3.70
2022-08-22T05:12:30.126Z,3.70
2022-08-22T05:15:11.044Z,3.60
2022-08-22T05:17:47.472Z,3.30
2022-08-22T05:20:26.839Z,3.00
2022-08-22T05:23:05.992Z,3.10
2022-08-22T05:25:54.532Z,3.00
2022-08-22T05:28:38.597Z,3.00
2022-08-22T05:31:23.259Z,3.20
2022-08-22T05:34:02.466Z,3.40
2022-08-22T05:36:40.178Z,3.50
2022-08-22T05:39:18.986Z,3.20
2022-08-22T05:41:55.390Z,3.40
2022-08-22T05:44:33.375Z,3.50
2022-08-22T05:47:18.018Z,3.20
2022-08-22T05:50:00.228Z,3.30
2022-08-22T05:52:53.019Z,3.60
2022-08-22T05:55:32.724Z,4.40
2022-08-22T05:58:29.476Z,3.50
2022-08-22T06:01:18.056Z,4.30
2022-08-22T06:04:02.570Z,3.40
2022-08-22T06:06:39.308Z,3.30
2022-08-22T06:09:19.397Z,3.00
2022-08-22T06:12:02.329Z,3.10
2022-08-22T06:14:45.396Z,3.10
2022-08-22T06:17:23.056Z,2.50
2022-08-22T06:19:57.293Z,2.80
2022-08-22T06:22:34.279Z,2.80
2022-08-22T06:25:15.562Z,2.80
2022-08-22T06:27:50.957Z,2.50
2022-08-22T06:30:26.775Z,2.60
2022-08-22T06:33:04.774Z,2.90
2022-08-22T06:35:59.822Z,2.80
2022-08-22T06:38:52.827Z,2.70
2022-08-22T06:41:29.830Z,3.00
2022-08-22T06:44:06.035Z,2.40
2022-08-22T06:46:41.809Z,2.50
2022-08-22T06:49:15.895Z,3.00
2022-08-22T06:51:49.964Z,3.10
2022-08-22T06:54:30.357Z,2.90
2022-08-22T06:57:07.627Z,2.20
2022-08-22T06:59:44.085Z,2.90
2022-08-22T07:02:27.746Z,2.30
2022-08-22T07:05:00.954Z,2.60
2022-08-22T07:07:38.908Z,2.90
2022-08-22T07:10:14.359Z,2.60
2022-08-22T07:12:52.824Z,2.60
2022-08-22T07:15:35.691Z,2.30
2022-08-22T07:18:17.158Z,2.10
2022-08-22T07:20:55.381Z,2.40
2022-08-22T07:23:38.698Z,2.60
2022-08-22T07:26:26.191Z,2.60
2022-08-22T07:29:10.714Z,2.40
2022-08-22T07:31:52.527Z,2.40
2022-08-22T07:34:44.890Z,2.60
2022-08-22T07:37:29.727Z,2.20
2022-08-22T07:40:14.387Z,2.50
2022-08-22T07:42:53.649Z,2.20
2022-08-22T07:45:36.937Z,2.10
2022-08-22T07:48:26.017Z,1.90
2022-08-22T07:51:12.543Z,1.70
2022-08-22T07:53:50.735Z,2.20
2022-08-22T07:56:31.089Z,2.00
2022-08-22T08:01:51.453Z,2.20
2022-08-22T08:04:29.814Z,2.20
2022-08-22T08:07:08.410Z,2.20
2022-08-22T08:09:46.147Z,2.40
2022-08-22T08:12:21.071Z,2.20
2022-08-22T08:14:56.919Z,2.30
2022-08-22T08:17:33.587Z,2.20
2022-08-22T08:20:11.463Z,2.20
2022-08-22T08:22:48.028Z,1.90
2022-08-22T08:25:25.143Z,1.70
2022-08-22T08:28:18.848Z,1.90
2022-08-22T08:31:00.197Z,2.20
2022-08-22T08:33:36.416Z,1.80
2022-08-22T08:36:19.361Z,2.20
2022-08-22T08:39:00.401Z,2.10
2022-08-22T08:42:01.837Z,1.80
2022-08-22T08:45:08.602Z,2.00
2022-08-22T08:47:57.575Z,1.80
2022-08-22T08:50:50.609Z,2.10
2022-08-22T08:53:48.834Z,1.90
2022-08-22T08:56:36.795Z,2.20
2022-08-22T08:59:27.303Z,2.10
2022-08-22T09:05:36.211Z,2.70
2022-08-22T09:09:05.211Z,2.90
2022-08-22T09:12:30.055Z,2.30
2022-08-22T09:15:21.749Z,3.00
2022-08-22T09:18:50.608Z,3.00
2022-08-22T09:22:18.402Z,2.90
2022-08-22T09:25:25.370Z,3.20
2022-08-22T09:28:06.019Z,3.20
2022-08-22T09:30:58.777Z,3.40
2022-08-22T09:33:41.667Z,3.40
2022-08-22T09:36:22.561Z,4.00
2022-08-22T09:39:05.893Z,3.70
2022-08-22T09:41:51.657Z,3.70
2022-08-22T09:44:51.307Z,3.50
2022-08-22T09:47:32.861Z,3.70
2022-08-22T09:50:14.709Z,3.80
2022-08-22T09:53:11.802Z,4.20
2022-08-22T09:55:54.473Z,4.20
2022-08-22T09:58:40.826Z,4.80
2022-08-22T10:01:27.398Z,4.80
2022-08-22T10:04:46.157Z,5.20
2022-08-22T10:07:47.042Z,5.20
2022-08-22T10:10:55.844Z,4.10
2022-08-22T10:13:44.699Z,5.60
2022-08-22T10:16:34.319Z,4.40
2022-08-22T10:19:18.818Z,5.10
2022-08-22T10:22:22.373Z,4.70
2022-08-22T10:25:25.974Z,4.90
2022-08-22T10:28:21.495Z,4.80
2022-08-22T10:31:19.984Z,5.50
2022-08-22T10:34:04.580Z,5.30
2022-08-22T10:36:49.055Z,5.70
2022-08-22T10:39:38.298Z,5.80
2022-08-22T10:42:34.945Z,5.70
2022-08-22T10:45:36.126Z,6.20
2022-08-22T10:48:49.463Z,6.60
2022-08-22T10:51:37.214Z,6.70
2022-08-22T10:54:52.906Z,6.90
2022-08-22T10:57:45.873Z,7.10
2022-08-22T11:00:50.152Z,7.70
2022-08-22T11:03:29.755Z,7.30
2022-08-22T11:06:08.205Z,7.80
2022-08-22T11:09:27.998Z,8.20
2022-08-22T11:12:12.965Z,8.20
2022-08-22T11:15:14.481Z,8.20
2022-08-22T11:18:24.599Z,7.80
2022-08-22T11:21:07.304Z,8.40
2022-08-22T11:23:52.891Z,8.80
2022-08-22T11:26:47.388Z,8.20
2022-08-22T11:29:43.495Z,8.30
2022-08-22T11:32:27.049Z,8.30
2022-08-22T11:35:09.355Z,8.50
2022-08-22T11:37:56.276Z,9.00
2022-08-22T11:40:46.204Z,8.90
2022-08-22T11:43:47.603Z,7.00
2022-08-22T11:46:30.840Z,8.30
2022-08-22T11:49:47.908Z,8.40
2022-08-22T11:52:54.551Z,8.20
2022-08-22T11:55:37.096Z,7.20
2022-08-22T11:58:29.233Z,8.20
2022-08-22T12:01:18.449Z,8.40
2022-08-22T12:04:10.580Z,7.80
2022-08-22T12:07:12.101Z,6.90
2022-08-22T12:09:55.946Z,7.10
2022-08-22T12:13:01.551Z,7.30
2022-08-22T12:15:47.476Z,7.60
2022-08-22T12:18:53.016Z,7.90
2022-08-22T12:22:35.000Z,7.90
2022-08-22T12:25:23.122Z,7.10
2022-08-22T12:28:15.768Z,7.10
2022-08-22T12:31:02.404Z,8.00
2022-08-22T12:34:02.704Z,7.50
2022-08-22T12:37:03.238Z,7.70
2022-08-22T12:40:33.202Z,7.80
2022-08-22T12:43:33.244Z,8.90
2022-08-22T12:46:28.303Z,8.40
2022-08-22T12:49:39.486Z,8.60
2022-08-22T12:52:26.060Z,7.90
2022-08-22T12:55:19.248Z,8.60
2022-08-22T12:58:04.060Z,8.50
2022-08-22T13:00:41.513Z,8.80
2022-08-22T13:03:29.711Z,7.90
2022-08-22T13:06:27.291Z,9.40
2022-08-22T13:09:00.968Z,9.30
2022-08-22T13:11:40.960Z,9.10
2022-08-22T13:14:19.062Z,10.40
2022-08-22T13:17:01.114Z,9.40
2022-08-22T13:20:00.843Z,9.60
2022-08-22T13:22:36.693Z,10.30
2022-08-22T13:25:25.672Z,9.40
2022-08-22T13:28:02.545Z,10.10
2022-08-22T13:30:40.146Z,9.10
2022-08-22T13:33:27.783Z,10.10
2022-08-22T13:36:06.800Z,9.80
2022-08-22T13:38:52.193Z,10.70
2022-08-22T13:41:29.635Z,10.50
2022-08-22T13:44:26.689Z,11.50
2022-08-22T13:47:14.272Z,11.40
2022-08-22T13:49:51.492Z,10.00
2022-08-22T13:52:32.930Z,11.40
2022-08-22T13:55:17.993Z,12.20
2022-08-22T13:57:55.288Z,11.10
2022-08-22T14:01:16.453Z,12.10
2022-08-22T14:03:57.547Z,10.90
2022-08-22T14:06:43.912Z,10.00
2022-08-22T14:09:32.851Z,11.40
2022-08-22T14:12:15.159Z,11.30
2022-08-22T14:14:56.522Z,10.00
2022-08-22T14:17:38.480Z,11.60
2022-08-22T14:20:33.825Z,10.60
2022-08-22T14:23:11.916Z,9.80
2022-08-22T14:25:47.182Z,10.60
2022-08-22T14:28:31.871Z,10.10
2022-08-22T14:31:13.521Z,9.80
2022-08-22T14:33:52.464Z,10.00
2022-08-22T14:36:30.747Z,10.30
2022-08-22T14:39:12.253Z,7.40
2022-08-22T14:41:57.038Z,10.00
2022-08-22T14:44:43.520Z,11.60
2022-08-22T14:47:48.194Z,12.00
2022-08-22T14:50:50.639Z,11.80
2022-08-22T14:53:31.943Z,11.40
2022-08-22T14:56:10.958Z,11.60
2022-08-22T14:58:55.522Z,12.40
2022-08-22T15:01:35.508Z,12.90
2022-08-22T15:04:18.921Z,11.30
2022-08-22T15:06:58.818Z,12.90
2022-08-22T15:09:37.121Z,13.40
2022-08-22T15:12:29.416Z,12.70
2022-08-22T15:15:09.439Z,14.00
2022-08-22T15:17:50.965Z,13.00
2022-08-22T15:20:38.234Z,12.80
2022-08-22T15:23:25.291Z,15.30
2022-08-22T15:26:06.496Z,15.50
2022-08-22T15:28:53.059Z,16.10
2022-08-22T15:31:26.874Z,16.00
2022-08-22T15:34:13.213Z,13.40
2022-08-22T15:40:11.894Z,16.10
2022-08-22T15:42:50.250Z,15.30
2022-08-22T15:45:37.733Z,15.50
2022-08-22T15:48:26.288Z,16.70
2022-08-22T15:51:09.371Z,16.90
2022-08-22T15:56:42.908Z,15.40
2022-08-22T15:59:54.071Z,15.90
2022-08-22T16:02:35.367Z,16.70
2022-08-22T16:05:30.902Z,16.30
2022-08-22T16:08:11.261Z,18.00
2022-08-22T16:13:43.831Z,17.80
2022-08-22T16:16:49.072Z,18.20
2022-08-22T16:19:25.648Z,18.40
2022-08-22T16:22:16.283Z,18.20
2022-08-22T16:25:11.558Z,18.00
2022-08-22T16:28:01.514Z,17.30
2022-08-22T16:30:41.005Z,17.10
2022-08-22T16:33:28.919Z,19.60
2022-08-22T16:36:47.377Z,19.50
2022-08-22T16:39:42.990Z,18.60
2022-08-22T16:42:38.309Z,17.40
2022-08-22T16:45:34.312Z,19.60
2022-08-22T16:48:27.899Z,18.00
2022-08-22T16:51:18.816Z,18.70
2022-08-22T16:54:12.397Z,16.60
2022-08-22T16:57:07.836Z,17.00
2022-08-22T17:00:08.282Z,18.00
2022-08-22T17:05:44.945Z,15.90
2022-08-22T17:08:43.797Z,18.10
2022-08-22T17:11:35.281Z,19.40
2022-08-22T17:14:34.848Z,19.10
2022-08-22T17:17:26.153Z,18.80
2022-08-22T17:20:14.320Z,18.20
2022-08-22T17:23:08.281Z,19.10
2022-08-22T17:25:55.965Z,19.00
2022-08-22T17:28:41.684Z,19.70
2022-08-22T17:31:25.876Z,18.80
2022-08-22T17:34:29.255Z,20.20
2022-08-22T17:37:13.274Z,17.00
2022-08-22T17:40:11.405Z,19.20
2022-08-22T17:43:10.454Z,18.90
2022-08-22T17:46:00.841Z,17.30
2022-08-22T17:51:28.830Z,20.30
2022-08-22T17:54:13.720Z,20.00
2022-08-22T17:57:00.445Z,19.80
2022-08-22T17:59:50.141Z,19.90
2022-08-22T18:02:29.994Z,20.20
2022-08-22T18:05:11.618Z,21.10
2022-08-22T18:08:37.554Z,21.60
2022-08-22T18:11:10.317Z,19.80
2022-08-22T18:13:59.636Z,21.80
2022-08-22T18:16:47.746Z,20.00
2022-08-22T18:19:39.789Z,21.90
2022-08-22T18:22:22.334Z,21.80
2022-08-22T18:25:02.147Z,22.20
2022-08-22T18:27:41.319Z,54.40
2022-08-22T18:30:25.136Z,23.10
2022-08-22T18:33:04.468Z,22.50
2022-08-22T18:35:53.814Z,23.70
2022-08-22T18:38:36.018Z,25.60
2022-08-22T18:41:21.819Z,26.60
2022-08-22T18:43:58.934Z,24.20
2022-08-22T18:46:51.694Z,25.70
2022-08-22T18:49:54.631Z,24.50
2022-08-22T18:52:44.462Z,24.30
2022-08-22T18:55:51.129Z,25.50
2022-08-22T18:58:49.430Z,24.80
2022-08-22T19:01:53.744Z,25.20
2022-08-22T19:05:04.559Z,24.70
2022-08-22T19:08:04.725Z,24.30
2022-08-22T19:10:55.301Z,22.90
2022-08-22T19:14:09.072Z,22.40
2022-08-22T19:17:04.978Z,21.10
2022-08-22T19:20:13.788Z,20.60
2022-08-22T19:22:51.135Z,21.00
2022-08-22T19:25:28.197Z,20.70
2022-08-22T19:28:35.952Z,19.70
2022-08-22T19:31:44.529Z,19.60
2022-08-22T19:34:47.782Z,18.00
2022-08-22T19:37:33.516Z,18.70
2022-08-22T19:40:11.385Z,17.40
2022-08-22T19:42:50.382Z,16.30
2022-08-22T19:45:29.374Z,16.10
2022-08-22T19:48:14.218Z,16.10
2022-08-22T19:50:47.368Z,15.50
2022-08-22T19:53:41.843Z,13.20
2022-08-22T19:56:38.604Z,14.10
2022-08-22T19:59:24.134Z,13.10
2022-08-22T20:02:17.464Z,14.20
2022-08-22T20:05:22.342Z,14.40
2022-08-22T20:08:31.450Z,15.00
2022-08-22T20:11:20.715Z,13.70
2022-08-22T20:14:10.522Z,13.70
2022-08-22T20:17:10.385Z,15.40
2022-08-22T20:22:52.755Z,15.90
2022-08-22T20:25:42.861Z,15.80
2022-08-22T20:28:47.220Z,15.50
2022-08-22T20:31:27.678Z,16.00
2022-08-22T20:36:36.741Z,15.30
2022-08-22T20:39:16.322Z,13.80
2022-08-22T20:41:56.488Z,16.60
2022-08-22T20:44:39.244Z,15.40
2022-08-22T20:47:21.380Z,13.30
2022-08-22T20:49:57.452Z,28.90
2022-08-22T20:52:35.481Z,14.50
2022-08-22T20:55:16.331Z,15.40
2022-08-22T20:57:57.399Z,14.40
2022-08-22T21:00:35.354Z,13.60
2022-08-22T21:03:14.910Z,12.70
2022-08-22T21:05:48.928Z,13.00
2022-08-22T21:08:26.342Z,13.00
2022-08-22T21:11:23.044Z,12.40
2022-08-22T21:13:56.455Z,13.20
2022-08-22T21:16:34.606Z,12.60
2022-08-22T21:19:20.737Z,13.30
2022-08-22T21:21:54.244Z,13.10
2022-08-22T21:24:27.134Z,14.10
2022-08-22T21:27:03.705Z,12.90
2022-08-22T21:29:47.898Z,13.80
2022-08-22T21:32:35.543Z,13.80
2022-08-22T21:35:25.879Z,14.10
2022-08-22T21:38:00.530Z,14.40
2022-08-22T21:40:39.695Z,14.40
2022-08-22T21:43:28.639Z,13.30
2022-08-22T21:46:01.886Z,13.70
2022-08-22T21:48:43.931Z,14.70
2022-08-22T21:51:46.777Z,14.00
2022-08-22T21:54:48.123Z,13.70
2022-08-22T21:57:37.084Z,13.30
2022-08-22T22:00:48.951Z,12.20
2022-08-22T22:03:26.834Z,12.20
2022-08-22T22:06:03.615Z,11.90
2022-08-22T22:08:37.025Z,10.80
2022-08-22T22:11:14.953Z,11.90
2022-08-22T22:13:47.801Z,11.90
2022-08-22T22:16:25.233Z,10.30
2022-08-22T22:18:58.533Z,10.80
2022-08-22T22:21:31.588Z,11.10
2022-08-22T22:24:05.032Z,11.60
2022-08-22T22:26:38.029Z,10.90
2022-08-22T22:29:11.227Z,10.50
2022-08-22T22:31:44.077Z,10.80
2022-08-22T22:34:18.595Z,12.30
2022-08-22T22:36:51.787Z,11.70
2022-08-22T22:39:24.740Z,12.50
2022-08-22T22:41:57.862Z,13.50
2022-08-22T22:44:30.672Z,13.40
2022-08-22T22:47:05.375Z,13.00
2022-08-22T22:49:40.547Z,13.90
2022-08-22T22:52:13.564Z,14.70
2022-08-22T22:54:46.384Z,14.40
2022-08-22T22:57:25.535Z,16.20
2022-08-22T22:59:58.733Z,16.80
2022-08-22T23:02:31.827Z,17.20
2022-08-22T23:05:05.027Z,17.20
2022-08-22T23:07:38.508Z,18.70
2022-08-22T23:10:13.464Z,18.80
2022-08-22T23:12:46.201Z,18.90
2022-08-22T23:15:19.287Z,18.00
2022-08-22T23:17:52.478Z,18.80
2022-08-22T23:20:25.571Z,18.50
2022-08-22T23:22:59.885Z,19.90
2022-08-22T23:25:32.987Z,18.90
2022-08-22T23:28:06.601Z,20.40
2022-08-22T23:30:39.359Z,19.30
2022-08-22T23:33:12.225Z,20.50
2022-08-22T23:35:45.434Z,20.30
2022-08-22T23:38:18.413Z,19.60
2022-08-22T23:40:53.760Z,20.80
2022-08-22T23:43:26.589Z,20.80
2022-08-22T23:45:59.429Z,21.00
2022-08-22T23:48:32.542Z,20.60
2022-08-22T23:51:05.647Z,22.80
2022-08-22T23:53:39.297Z,21.50
2022-08-22T23:56:19.098Z,19.90
2022-08-22T23:58:53.484Z,19.70
